Tres Piedras, NM (87577)

9:40 PM MST on December 27, 2014 (GMT -0700)
Taos Municipal | Change Station
CLOSE
Current Station
Airport
Location: Taos,
Elevation: 7090 ft
Nearby Weather Stations

Elev 7090 ft 36.46 °N, 105.67 °W | Updated 5 minutes ago

Clear
Clear
0 °F
Feels Like -10 °F
N
5
Wind Variable Wind from North

Today
High -- | Low -- °F
--% Chance of Precip.
Yesterday
High -- | Low -- °F
Precip. -- in
7:14 AM 4:55 PM
Waxing Crescent, 43% visible
Pressure 30.21 in
Visibility 10.0 miles
Clouds Clear
Windchill -10 °F
Dew Point -6 °F
Humidity 78%
Rainfall 0.00 in
Snow Depth Not available.
UV 0 out of 12
Pollen .10 out of 12
Air Quality Not available.
Flu Activity Not available.
METAR KSKX 280435Z AUTO 01004KT 10SM CLR M18/M21 A3021 RMK AO1

More Conditions Fewer Conditions

Pressure 30.21 in
Visibility 10.0 miles
Clouds Clear
Windchill -10 °F
Dew Point -6 °F
Humidity 78%
Rainfall 0.00 in
Snow Depth Not available.
UV 0 out of 12
Pollen .10 out of 12
Air Quality Not available.
Flu Activity Not available.
METAR KSKX 280435Z AUTO 01004KT 10SM CLR M18/M21 A3021 RMK AO1

More Conditions Fewer Conditions

10-Day Weather Forecast

Almanac

Astronomy

Dec. 27, 2014 Rise Set
Actual Time
Civil Twilight
Nautical Twilight
Astronomical Twilight
Moon
Length of Visible Light
Length of Day
Tomorrow will be .
, % of the Moon is Illuminated

Today's Extremes

State Highs State Lows

Community

WunderPhotos

Upload Photos

1,781,196 photos uploaded!

WunderBlogs® & News

Nearby

Air Quality

  Air Quality AQ Index Pollutant
Not available.

Snow Depth

Station Depth Elevation

Earthquake Activity

City Distance Mag. Time & Date
Minimum magnitude displayed is 2.5.

Coastal Water Temperatures

Place Temperature

Nearby Weather Stations